sensor_id;sensor_type;location;lat;lon;timestamp;pressure;altitude;pressure_sealevel;temperature;humidity
62103;BME280;48077;48.104;11.702;2024-02-21T00:01:53;96508.81;;;1.93;100.00
62103;BME280;48077;48.104;11.702;2024-02-21T00:04:21;96495.38;;;1.96;100.00
62103;BME280;48077;48.104;11.702;2024-02-21T00:06:49;96503.09;;;1.98;100.00
62103;BME280;48077;48.104;11.702;2024-02-21T00:09:17;96500.47;;;1.98;100.00
62103;BME280;48077;48.104;11.702;2024-02-21T00:11:46;96503.47;;;2.03;100.00
62103;BME280;48077;48.104;11.702;2024-02-21T00:14:15;96497.59;;;2.09;100.00
62103;BME280;48077;48.104;11.702;2024-02-21T00:16:43;96501.03;;;2.10;100.00
62103;BME280;48077;48.104;11.702;2024-02-21T00:19:11;96498.25;;;2.11;100.00
62103;BME280;48077;48.104;11.702;2024-02-21T00:21:39;96490.38;;;2.11;100.00
62103;BME280;48077;48.104;11.702;2024-02-21T00:24:06;96495.00;;;2.17;100.00
62103;BME280;48077;48.104;11.702;2024-02-21T00:26:34;96483.03;;;2.23;100.00
62103;BME280;48077;48.104;11.702;2024-02-21T00:29:02;96482.50;;;2.19;100.00
62103;BME280;48077;48.104;11.702;2024-02-21T00:31:35;96475.16;;;2.23;100.00
62103;BME280;48077;48.104;11.702;2024-02-21T00:34:03;96476.16;;;2.30;100.00
62103;BME280;48077;48.104;11.702;2024-02-21T00:36:31;96465.94;;;2.27;100.00
62103;BME280;48077;48.104;11.702;2024-02-21T00:38:58;96466.78;;;2.28;100.00
62103;BME280;48077;48.104;11.702;2024-02-21T00:41:26;96469.75;;;2.33;100.00
62103;BME280;48077;48.104;11.702;2024-02-21T00:43:54;96455.09;;;2.30;100.00
62103;BME280;48077;48.104;11.702;2024-02-21T00:46:22;96456.72;;;2.31;100.00
62103;BME280;48077;48.104;11.702;2024-02-21T00:48:51;96457.47;;;2.50;100.00
62103;BME280;48077;48.104;11.702;2024-02-21T00:51:19;96453.34;;;2.47;100.00
62103;BME280;48077;48.104;11.702;2024-02-21T00:53:46;96457.63;;;2.40;100.00
62103;BME280;48077;48.104;11.702;2024-02-21T00:56:14;96451.19;;;2.42;100.00
62103;BME280;48077;48.104;11.702;2024-02-21T00:58:41;96456.13;;;2.46;100.00
62103;BME280;48077;48.104;11.702;2024-02-21T01:01:09;96458.09;;;2.43;100.00
62103;BME280;48077;48.104;11.702;2024-02-21T01:07:44;96461.97;;;2.23;100.00
62103;BME280;48077;48.104;11.702;2024-02-21T01:10:12;96463.31;;;2.27;100.00
62103;BME280;48077;48.104;11.702;2024-02-21T01:12:40;96461.50;;;2.28;100.00
62103;BME280;48077;48.104;11.702;2024-02-21T01:15:08;96455.06;;;2.22;100.00
62103;BME280;48077;48.104;11.702;2024-02-21T01:17:36;96454.75;;;2.25;100.00
62103;BME280;48077;48.104;11.702;2024-02-21T01:20:05;96437.09;;;2.17;100.00
62103;BME280;48077;48.104;11.702;2024-02-21T01:22:33;96447.97;;;2.22;100.00
62103;BME280;48077;48.104;11.702;2024-02-21T01:25:02;96449.97;;;2.29;100.00
62103;BME280;48077;48.104;11.702;2024-02-21T01:27:30;96445.72;;;2.28;100.00
62103;BME280;48077;48.104;11.702;2024-02-21T01:29:57;96443.25;;;2.34;100.00
62103;BME280;48077;48.104;11.702;2024-02-21T01:32:25;96443.56;;;2.31;100.00
62103;BME280;48077;48.104;11.702;2024-02-21T01:34:53;96435.31;;;2.26;100.00
62103;BME280;48077;48.104;11.702;2024-02-21T01:37:21;96425.47;;;2.28;100.00
62103;BME280;48077;48.104;11.702;2024-02-21T01:39:48;96428.91;;;2.29;100.00
62103;BME280;48077;48.104;11.702;2024-02-21T01:42:18;96423.34;;;2.32;100.00
62103;BME280;48077;48.104;11.702;2024-02-21T01:44:46;96425.31;;;2.30;100.00
62103;BME280;48077;48.104;11.702;2024-02-21T01:47:13;96416.91;;;2.26;100.00
62103;BME280;48077;48.104;11.702;2024-02-21T01:49:41;96415.94;;;2.27;100.00
62103;BME280;48077;48.104;11.702;2024-02-21T01:52:10;96417.22;;;2.23;100.00
62103;BME280;48077;48.104;11.702;2024-02-21T01:54:39;96415.56;;;2.22;100.00
62103;BME280;48077;48.104;11.702;2024-02-21T01:57:07;96407.00;;;2.20;100.00
62103;BME280;48077;48.104;11.702;2024-02-21T01:59:36;96403.88;;;2.25;100.00
62103;BME280;48077;48.104;11.702;2024-02-21T02:02:03;96397.13;;;2.22;100.00
62103;BME280;48077;48.104;11.702;2024-02-21T02:04:32;96395.50;;;2.21;100.00
62103;BME280;48077;48.104;11.702;2024-02-21T02:07:02;96393.34;;;2.25;100.00
62103;BME280;48077;48.104;11.702;2024-02-21T02:09:31;96397.50;;;2.27;100.00
62103;BME280;48077;48.104;11.702;2024-02-21T02:12:00;96394.50;;;2.22;100.00
62103;BME280;48077;48.104;11.702;2024-02-21T02:14:28;96387.94;;;2.26;100.00
62103;BME280;48077;48.104;11.702;2024-02-21T02:16:56;96389.91;;;2.24;100.00
62103;BME280;48077;48.104;11.702;2024-02-21T02:19:24;96388.47;;;2.30;100.00
62103;BME280;48077;48.104;11.702;2024-02-21T02:21:57;96384.53;;;2.34;100.00
62103;BME280;48077;48.104;11.702;2024-02-21T02:24:28;96376.78;;;2.32;100.00
62103;BME280;48077;48.104;11.702;2024-02-21T02:26:56;96375.13;;;2.39;100.00
62103;BME280;48077;48.104;11.702;2024-02-21T02:29:24;96374.47;;;2.37;100.00
62103;BME280;48077;48.104;11.702;2024-02-21T02:31:51;96370.06;;;2.38;100.00
62103;BME280;48077;48.104;11.702;2024-02-21T02:34:19;96357.38;;;2.41;100.00
62103;BME280;48077;48.104;11.702;2024-02-21T02:36:47;96356.56;;;2.41;100.00
62103;BME280;48077;48.104;11.702;2024-02-21T02:39:15;96350.78;;;2.37;100.00
62103;BME280;48077;48.104;11.702;2024-02-21T02:41:44;96357.22;;;2.43;100.00
62103;BME280;48077;48.104;11.702;2024-02-21T02:44:12;96351.78;;;2.36;100.00
62103;BME280;48077;48.104;11.702;2024-02-21T02:46:41;96342.72;;;2.39;100.00
62103;BME280;48077;48.104;11.702;2024-02-21T02:49:09;96339.13;;;2.40;100.00
62103;BME280;48077;48.104;11.702;2024-02-21T02:51:41;96315.72;;;2.29;100.00
62103;BME280;48077;48.104;11.702;2024-02-21T02:54:09;96333.88;;;2.40;100.00
62103;BME280;48077;48.104;11.702;2024-02-21T02:56:36;96325.97;;;2.48;100.00
62103;BME280;48077;48.104;11.702;2024-02-21T02:59:05;96324.66;;;2.44;100.00
62103;BME280;48077;48.104;11.702;2024-02-21T03:01:34;96322.19;;;2.42;100.00
62103;BME280;48077;48.104;11.702;2024-02-21T03:04:02;96324.00;;;2.42;100.00
62103;BME280;48077;48.104;11.702;2024-02-21T03:06:30;96323.81;;;2.43;100.00
62103;BME280;48077;48.104;11.702;2024-02-21T03:08:58;96320.06;;;2.46;100.00
62103;BME280;48077;48.104;11.702;2024-02-21T03:11:27;96316.56;;;2.46;100.00
62103;BME280;48077;48.104;11.702;2024-02-21T03:13:57;96313.47;;;2.50;100.00
62103;BME280;48077;48.104;11.702;2024-02-21T03:16:26;96317.91;;;2.58;100.00
62103;BME280;48077;48.104;11.702;2024-02-21T03:18:54;96315.78;;;2.53;100.00
62103;BME280;48077;48.104;11.702;2024-02-21T03:21:22;96309.03;;;2.51;100.00
62103;BME280;48077;48.104;11.702;2024-02-21T03:23:50;96311.31;;;2.54;100.00
62103;BME280;48077;48.104;11.702;2024-02-21T03:26:17;96315.25;;;2.50;100.00
62103;BME280;48077;48.104;11.702;2024-02-21T03:28:45;96311.66;;;2.51;100.00
62103;BME280;48077;48.104;11.702;2024-02-21T03:31:13;96312.16;;;2.54;100.00
62103;BME280;48077;48.104;11.702;2024-02-21T03:33:42;96312.97;;;2.55;100.00
62103;BME280;48077;48.104;11.702;2024-02-21T03:36:13;96312.16;;;2.54;100.00
62103;BME280;48077;48.104;11.702;2024-02-21T03:38:41;96305.41;;;2.52;100.00
62103;BME280;48077;48.104;11.702;2024-02-21T03:41:09;96307.56;;;2.56;100.00
62103;BME280;48077;48.104;11.702;2024-02-21T03:43:37;96310.19;;;2.56;100.00
62103;BME280;48077;48.104;11.702;2024-02-21T03:46:05;96308.03;;;2.52;100.00
62103;BME280;48077;48.104;11.702;2024-02-21T03:48:34;96303.28;;;2.55;100.00
62103;BME280;48077;48.104;11.702;2024-02-21T03:51:03;96309.56;;;2.62;100.00
62103;BME280;48077;48.104;11.702;2024-02-21T03:53:31;96309.84;;;2.59;100.00
62103;BME280;48077;48.104;11.702;2024-02-21T03:56:00;96306.56;;;2.66;100.00
62103;BME280;48077;48.104;11.702;2024-02-21T03:58:30;96300.47;;;2.57;100.00
62103;BME280;48077;48.104;11.702;2024-02-21T04:00:59;96299.47;;;2.58;100.00
62103;BME280;48077;48.104;11.702;2024-02-21T04:03:28;96297.69;;;2.58;100.00
62103;BME280;48077;48.104;11.702;2024-02-21T04:05:56;96301.63;;;2.54;100.00
62103;BME280;48077;48.104;11.702;2024-02-21T04:08:25;96304.94;;;2.56;100.00
62103;BME280;48077;48.104;11.702;2024-02-21T04:10:53;96300.63;;;2.55;100.00
62103;BME280;48077;48.104;11.702;2024-02-21T04:13:21;96305.09;;;2.55;100.00
62103;BME280;48077;48.104;11.702;2024-02-21T04:15:49;96300.31;;;2.58;100.00
62103;BME280;48077;48.104;11.702;2024-02-21T04:18:16;96298.66;;;2.57;100.00
62103;BME280;48077;48.104;11.702;2024-02-21T04:20:44;96293.88;;;2.53;100.00
62103;BME280;48077;48.104;11.702;2024-02-21T04:23:12;96295.03;;;2.50;100.00
62103;BME280;48077;48.104;11.702;2024-02-21T04:25:42;96293.88;;;2.53;100.00
62103;BME280;48077;48.104;11.702;2024-02-21T04:28:09;96286.16;;;2.51;100.00
62103;BME280;48077;48.104;11.702;2024-02-21T04:30:37;96282.34;;;2.54;100.00
62103;BME280;48077;48.104;11.702;2024-02-21T04:33:05;96283.66;;;2.50;100.00
62103;BME280;48077;48.104;11.702;2024-02-21T04:35:33;96278.59;;;2.48;100.00
62103;BME280;48077;48.104;11.702;2024-02-21T04:38:00;96273.13;;;2.41;100.00
62103;BME280;48077;48.104;11.702;2024-02-21T04:40:28;96273.13;;;2.41;100.00
62103;BME280;48077;48.104;11.702;2024-02-21T04:42:58;96271.16;;;2.43;100.00
62103;BME280;48077;48.104;11.702;2024-02-21T04:45:26;96272.78;;;2.36;100.00
62103;BME280;48077;48.104;11.702;2024-02-21T04:47:54;96262.56;;;2.33;100.00
62103;BME280;48077;48.104;11.702;2024-02-21T04:50:21;96265.88;;;2.27;100.00
62103;BME280;48077;48.104;11.702;2024-02-21T04:52:49;96260.75;;;2.17;100.00
62103;BME280;48077;48.104;11.702;2024-02-21T04:55:17;96256.66;;;2.15;100.00
62103;BME280;48077;48.104;11.702;2024-02-21T04:57:45;96250.88;;;2.11;100.00
62103;BME280;48077;48.104;11.702;2024-02-21T05:00:15;96252.50;;;2.12;100.00
62103;BME280;48077;48.104;11.702;2024-02-21T05:02:42;96247.22;;;2.04;100.00
62103;BME280;48077;48.104;11.702;2024-02-21T05:05:10;96245.75;;;2.01;100.00
62103;BME280;48077;48.104;11.702;2024-02-21T05:07:38;96243.25;;;2.00;100.00
62103;BME280;48077;48.104;11.702;2024-02-21T05:10:07;96238.16;;;1.90;100.00
62103;BME280;48077;48.104;11.702;2024-02-21T05:12:36;96225.16;;;1.89;100.00
62103;BME280;48077;48.104;11.702;2024-02-21T05:15:04;96225.66;;;1.84;100.00
62103;BME280;48077;48.104;11.702;2024-02-21T05:17:33;96218.41;;;1.86;100.00
62103;BME280;48077;48.104;11.702;2024-02-21T05:20:01;96219.88;;;1.80;100.00
62103;BME280;48077;48.104;11.702;2024-02-21T05:22:29;96211.00;;;1.73;100.00
62103;BME280;48077;48.104;11.702;2024-02-21T05:24:57;96211.28;;;1.70;100.00
62103;BME280;48077;48.104;11.702;2024-02-21T05:27:25;96202.75;;;1.76;100.00
62103;BME280;48077;48.104;11.702;2024-02-21T05:29:53;96200.78;;;1.70;100.00
62103;BME280;48077;48.104;11.702;2024-02-21T05:32:21;96195.66;;;1.69;100.00
62103;BME280;48077;48.104;11.702;2024-02-21T05:34:50;96190.72;;;1.57;100.00
62103;BME280;48077;48.104;11.702;2024-02-21T05:37:17;96193.53;;;1.64;100.00
62103;BME280;48077;48.104;11.702;2024-02-21T05:39:45;96189.91;;;1.57;100.00
62103;BME280;48077;48.104;11.702;2024-02-21T05:42:13;96183.97;;;1.55;100.00
62103;BME280;48077;48.104;11.702;2024-02-21T05:44:40;96184.94;;;1.54;100.00
62103;BME280;48077;48.104;11.702;2024-02-21T05:47:08;96184.59;;;1.49;100.00
62103;BME280;48077;48.104;11.702;2024-02-21T05:49:37;96177.53;;;1.49;100.00
62103;BME280;48077;48.104;11.702;2024-02-21T05:52:06;96177.34;;;1.42;100.00
62103;BME280;48077;48.104;11.702;2024-02-21T05:54:34;96169.13;;;1.46;100.00
62103;BME280;48077;48.104;11.702;2024-02-21T05:57:01;96169.78;;;1.39;100.00
62103;BME280;48077;48.104;11.702;2024-02-21T05:59:29;96167.47;;;1.36;100.00
62103;BME280;48077;48.104;11.702;2024-02-21T06:01:57;96169.09;;;1.37;100.00
62103;BME280;48077;48.104;11.702;2024-02-21T06:04:25;96161.72;;;1.41;100.00
62103;BME280;48077;48.104;11.702;2024-02-21T06:06:53;96156.16;;;1.44;100.00
62103;BME280;48077;48.104;11.702;2024-02-21T06:09:22;96154.84;;;1.40;100.00
62103;BME280;48077;48.104;11.702;2024-02-21T06:11:49;96148.59;;;1.41;100.00
62103;BME280;48077;48.104;11.702;2024-02-21T06:14:17;96151.56;;;1.46;100.00
62103;BME280;48077;48.104;11.702;2024-02-21T06:16:45;96152.38;;;1.38;100.00
62103;BME280;48077;48.104;11.702;2024-02-21T06:19:13;96156.47;;;1.41;100.00
62103;BME280;48077;48.104;11.702;2024-02-21T06:21:41;96156.44;;;1.33;100.00
62103;BME280;48077;48.104;11.702;2024-02-21T06:24:09;96162.38;;;1.35;100.00
62103;BME280;48077;48.104;11.702;2024-02-21T06:26:38;96167.44;;;1.28;100.00
62103;BME280;48077;48.104;11.702;2024-02-21T06:29:06;96159.72;;;1.27;100.00
62103;BME280;48077;48.104;11.702;2024-02-21T06:31:35;96152.97;;;1.24;100.00
62103;BME280;48077;48.104;11.702;2024-02-21T06:34:03;96153.50;;;1.36;100.00
62103;BME280;48077;48.104;11.702;2024-02-21T06:36:31;96152.22;;;1.40;100.00
62103;BME280;48077;48.104;11.702;2024-02-21T06:38:59;96151.38;;;1.39;100.00
62103;BME280;48077;48.104;11.702;2024-02-21T06:41:27;96149.41;;;1.41;100.00
62103;BME280;48077;48.104;11.702;2024-02-21T06:43:58;96146.31;;;1.46;100.00
62103;BME280;48077;48.104;11.702;2024-02-21T06:46:26;96146.69;;;1.59;100.00
62103;BME280;48077;48.104;11.702;2024-02-21T06:48:56;96153.59;;;1.60;100.00
62103;BME280;48077;48.104;11.702;2024-02-21T06:51:24;96154.75;;;1.66;100.00
62103;BME280;48077;48.104;11.702;2024-02-21T06:53:52;96159.38;;;1.80;100.00
62103;BME280;48077;48.104;11.702;2024-02-21T06:56:20;96155.59;;;1.91;100.00
62103;BME280;48077;48.104;11.702;2024-02-21T06:58:48;96156.94;;;2.03;100.00
62103;BME280;48077;48.104;11.702;2024-02-21T07:01:17;96155.31;;;2.11;100.00
62103;BME280;48077;48.104;11.702;2024-02-21T07:03:45;96155.97;;;2.13;100.00
62103;BME280;48077;48.104;11.702;2024-02-21T07:06:13;96158.25;;;2.16;100.00
62103;BME280;48077;48.104;11.702;2024-02-21T07:08:41;96148.75;;;2.23;100.00
62103;BME280;48077;48.104;11.702;2024-02-21T07:11:08;96147.59;;;2.34;100.00
62103;BME280;48077;48.104;11.702;2024-02-21T07:13:36;96134.88;;;2.37;100.00
62103;BME280;48077;48.104;11.702;2024-02-21T07:16:04;96140.00;;;2.39;100.00
62103;BME280;48077;48.104;11.702;2024-02-21T07:18:33;96136.03;;;2.43;100.00
62103;BME280;48077;48.104;11.702;2024-02-21T07:21:01;96140.00;;;2.47;100.00
62103;BME280;48077;48.104;11.702;2024-02-21T07:23:29;96145.59;;;2.52;100.00
62103;BME280;48077;48.104;11.702;2024-02-21T07:25:57;96142.47;;;2.57;100.00
62103;BME280;48077;48.104;11.702;2024-02-21T07:28:26;96143.28;;;2.66;100.00
62103;BME280;48077;48.104;11.702;2024-02-21T07:30:54;96146.69;;;2.74;100.00
62103;BME280;48077;48.104;11.702;2024-02-21T07:33:21;96153.44;;;2.85;100.00
62103;BME280;48077;48.104;11.702;2024-02-21T07:35:51;96150.63;;;2.87;100.00
62103;BME280;48077;48.104;11.702;2024-02-21T07:38:21;96147.69;;;2.90;100.00
62103;BME280;48077;48.104;11.702;2024-02-21T07:40:49;96139.94;;;2.88;100.00
62103;BME280;48077;48.104;11.702;2024-02-21T07:43:17;96140.06;;;2.95;100.00
62103;BME280;48077;48.104;11.702;2024-02-21T07:45:45;96139.69;;;3.06;100.00
62103;BME280;48077;48.104;11.702;2024-02-21T07:48:13;96122.41;;;3.03;100.00
62103;BME280;48077;48.104;11.702;2024-02-21T07:50:40;96118.16;;;3.02;100.00
62103;BME280;48077;48.104;11.702;2024-02-21T07:53:10;96112.03;;;3.02;100.00
62103;BME280;48077;48.104;11.702;2024-02-21T07:55:37;96111.88;;;3.03;100.00
62103;BME280;48077;48.104;11.702;2024-02-21T07:58:05;96104.09;;;3.10;100.00
62103;BME280;48077;48.104;11.702;2024-02-21T08:00:34;96098.81;;;3.18;100.00
62103;BME280;48077;48.104;11.702;2024-02-21T08:03:02;96097.59;;;3.29;100.00
62103;BME280;48077;48.104;11.702;2024-02-21T08:05:30;96091.13;;;3.40;100.00
62103;BME280;48077;48.104;11.702;2024-02-21T08:07:58;96078.59;;;3.42;100.00
62103;BME280;48077;48.104;11.702;2024-02-21T08:10:27;96066.56;;;3.39;100.00
62103;BME280;48077;48.104;11.702;2024-02-21T08:12:55;96070.50;;;3.43;100.00
62103;BME280;48077;48.104;11.702;2024-02-21T08:15:22;96058.97;;;3.44;100.00
62103;BME280;48077;48.104;11.702;2024-02-21T08:17:55;96049.19;;;3.53;100.00
62103;BME280;48077;48.104;11.702;2024-02-21T08:20:26;96042.03;;;3.62;100.00
62103;BME280;48077;48.104;11.702;2024-02-21T08:22:54;96034.06;;;3.70;100.00
62103;BME280;48077;48.104;11.702;2024-02-21T08:25:22;96034.75;;;3.87;100.00
62103;BME280;48077;48.104;11.702;2024-02-21T08:27:51;96030.84;;;3.98;100.00
62103;BME280;48077;48.104;11.702;2024-02-21T08:30:19;96037.41;;;4.02;100.00
62103;BME280;48077;48.104;11.702;2024-02-21T08:32:47;96042.47;;;4.12;100.00
62103;BME280;48077;48.104;11.702;2024-02-21T08:35:15;96038.22;;;4.25;100.00
62103;BME280;48077;48.104;11.702;2024-02-21T08:37:46;96014.44;;;4.25;100.00
62103;BME280;48077;48.104;11.702;2024-02-21T08:40:14;96034.63;;;4.56;100.00
62103;BME280;48077;48.104;11.702;2024-02-21T08:42:44;96022.69;;;4.75;100.00
62103;BME280;48077;48.104;11.702;2024-02-21T08:45:13;96027.66;;;4.85;100.00
62103;BME280;48077;48.104;11.702;2024-02-21T08:47:41;96025.84;;;5.00;100.00
62103;BME280;48077;48.104;11.702;2024-02-21T08:50:10;96030.38;;;5.06;100.00
62103;BME280;48077;48.104;11.702;2024-02-21T08:52:53;96035.19;;;5.18;100.00
62103;BME280;48077;48.104;11.702;2024-02-21T08:55:23;96035.03;;;5.41;100.00
62103;BME280;48077;48.104;11.702;2024-02-21T08:57:53;96035.03;;;5.41;100.00
62103;BME280;48077;48.104;11.702;2024-02-21T09:00:22;96039.59;;;5.47;100.00
62103;BME280;48077;48.104;11.702;2024-02-21T09:02:54;96037.91;;;5.61;99.71
62103;BME280;48077;48.104;11.702;2024-02-21T09:05:23;96033.88;;;5.65;96.27
62103;BME280;48077;48.104;11.702;2024-02-21T09:07:52;96027.72;;;5.79;97.93
62103;BME280;48077;48.104;11.702;2024-02-21T09:10:20;96035.56;;;5.94;88.23
62103;BME280;48077;48.104;11.702;2024-02-21T09:12:48;96038.75;;;6.04;88.06
62103;BME280;48077;48.104;11.702;2024-02-21T09:15:16;96044.19;;;6.24;84.63
62103;BME280;48077;48.104;11.702;2024-02-21T09:17:45;96037.75;;;6.34;83.03
62103;BME280;48077;48.104;11.702;2024-02-21T09:20:13;96041.13;;;6.49;85.31
62103;BME280;48077;48.104;11.702;2024-02-21T09:22:43;96040.00;;;6.37;78.82
62103;BME280;48077;48.104;11.702;2024-02-21T09:25:11;96030.47;;;6.42;80.96
62103;BME280;48077;48.104;11.702;2024-02-21T09:27:39;96038.09;;;6.52;78.00
62103;BME280;48077;48.104;11.702;2024-02-21T09:30:07;96034.75;;;6.72;77.23
62103;BME280;48077;48.104;11.702;2024-02-21T09:32:35;96037.06;;;6.81;78.33
62103;BME280;48077;48.104;11.702;2024-02-21T09:35:06;96028.25;;;6.81;76.41
62103;BME280;48077;48.104;11.702;2024-02-21T09:37:34;96028.50;;;6.86;77.68
62103;BME280;48077;48.104;11.702;2024-02-21T09:40:03;96026.31;;;6.96;72.55
62103;BME280;48077;48.104;11.702;2024-02-21T09:42:37;96031.28;;;7.13;72.80
62103;BME280;48077;48.104;11.702;2024-02-21T09:45:08;96028.47;;;7.21;71.27
62103;BME280;48077;48.104;11.702;2024-02-21T09:47:46;96031.91;;;7.15;70.19
62103;BME280;48077;48.104;11.702;2024-02-21T09:50:19;96030.53;;;7.25;69.76
62103;BME280;48077;48.104;11.702;2024-02-21T09:52:49;96020.75;;;7.39;69.44
62103;BME280;48077;48.104;11.702;2024-02-21T09:55:19;96028.34;;;7.56;69.72
62103;BME280;48077;48.104;11.702;2024-02-21T09:57:47;96018.97;;;7.60;66.25
62103;BME280;48077;48.104;11.702;2024-02-21T10:00:17;96004.28;;;7.64;65.24
62103;BME280;48077;48.104;11.702;2024-02-21T10:02:48;96014.53;;;8.14;64.24
62103;BME280;48077;48.104;11.702;2024-02-21T10:05:17;96011.69;;;8.15;63.40
62103;BME280;48077;48.104;11.702;2024-02-21T10:07:49;96010.66;;;8.16;62.56
62103;BME280;48077;48.104;11.702;2024-02-21T10:10:17;96013.72;;;8.33;62.03
62103;BME280;48077;48.104;11.702;2024-02-21T10:12:49;96007.41;;;8.61;61.37
62103;BME280;48077;48.104;11.702;2024-02-21T10:15:20;95997.16;;;8.71;61.69
62103;BME280;48077;48.104;11.702;2024-02-21T10:17:49;95996.44;;;8.96;61.68
62103;BME280;48077;48.104;11.702;2024-02-21T10:20:17;95992.34;;;8.93;57.82
62103;BME280;48077;48.104;11.702;2024-02-21T10:22:45;95987.25;;;8.85;57.24
62103;BME280;48077;48.104;11.702;2024-02-21T10:25:15;95988.03;;;8.99;56.48
62103;BME280;48077;48.104;11.702;2024-02-21T10:27:43;95970.94;;;8.81;56.24
62103;BME280;48077;48.104;11.702;2024-02-21T10:30:13;95973.25;;;9.09;55.92
62103;BME280;48077;48.104;11.702;2024-02-21T10:32:49;95978.88;;;9.40;56.19
62103;BME280;48077;48.104;11.702;2024-02-21T10:35:26;95983.00;;;9.67;54.68
62103;BME280;48077;48.104;11.702;2024-02-21T10:37:55;95977.16;;;9.84;52.59
62103;BME280;48077;48.104;11.702;2024-02-21T10:40:27;95976.91;;;10.17;52.62
62103;BME280;48077;48.104;11.702;2024-02-21T10:42:57;95970.59;;;10.37;52.16
62103;BME280;48077;48.104;11.702;2024-02-21T10:45:29;95964.06;;;10.32;50.82
62103;BME280;48077;48.104;11.702;2024-02-21T10:48:06;95954.47;;;10.00;50.13
62103;BME280;48077;48.104;11.702;2024-02-21T10:50:45;95954.84;;;10.28;51.15
62103;BME280;48077;48.104;11.702;2024-02-21T10:53:20;95936.25;;;10.65;52.04
62103;BME280;48077;48.104;11.702;2024-02-21T10:55:58;95931.34;;;10.62;47.35
62103;BME280;48077;48.104;11.702;2024-02-21T10:58:30;95923.41;;;10.92;49.65
62103;BME280;48077;48.104;11.702;2024-02-21T11:01:00;95904.44;;;10.45;47.10
62103;BME280;48077;48.104;11.702;2024-02-21T11:03:30;95903.66;;;10.63;47.15
62103;BME280;48077;48.104;11.702;2024-02-21T11:05:58;95902.16;;;10.86;47.85
62103;BME280;48077;48.104;11.702;2024-02-21T11:08:27;95904.94;;;11.09;46.85
62103;BME280;48077;48.104;11.702;2024-02-21T11:10:59;95895.06;;;11.40;46.63
62103;BME280;48077;48.104;11.702;2024-02-21T11:13:30;95881.88;;;11.27;45.76
62103;BME280;48077;48.104;11.702;2024-02-21T11:16:09;95889.00;;;11.33;46.25
62103;BME280;48077;48.104;11.702;2024-02-21T11:18:37;95879.31;;;11.50;47.00
62103;BME280;48077;48.104;11.702;2024-02-21T11:21:06;95878.03;;;11.53;44.12
62103;BME280;48077;48.104;11.702;2024-02-21T11:23:34;95866.78;;;11.74;44.46
62103;BME280;48077;48.104;11.702;2024-02-21T11:26:08;95852.38;;;11.87;42.85
62103;BME280;48077;48.104;11.702;2024-02-21T11:28:36;95844.06;;;12.19;42.60
62103;BME280;48077;48.104;11.702;2024-02-21T11:31:07;95842.97;;;12.44;40.71
62103;BME280;48077;48.104;11.702;2024-02-21T11:33:35;95833.81;;;12.40;40.40
62103;BME280;48077;48.104;11.702;2024-02-21T11:36:07;95827.97;;;12.43;40.47
62103;BME280;48077;48.104;11.702;2024-02-21T11:38:35;95828.00;;;12.19;37.54
62103;BME280;48077;48.104;11.702;2024-02-21T11:41:09;95820.56;;;11.98;38.35
62103;BME280;48077;48.104;11.702;2024-02-21T11:43:40;95820.44;;;12.28;38.97
62103;BME280;48077;48.104;11.702;2024-02-21T11:46:08;95811.47;;;12.34;39.49
62103;BME280;48077;48.104;11.702;2024-02-21T11:48:36;95820.66;;;11.67;39.16
62103;BME280;48077;48.104;11.702;2024-02-21T11:51:05;95804.53;;;11.74;38.55
62103;BME280;48077;48.104;11.702;2024-02-21T11:53:32;95801.41;;;12.01;39.08
62103;BME280;48077;48.104;11.702;2024-02-21T11:56:10;95791.75;;;12.00;38.62
62103;BME280;48077;48.104;11.702;2024-02-21T11:58:38;95793.25;;;11.95;38.07
62103;BME280;48077;48.104;11.702;2024-02-21T12:01:06;95794.19;;;12.13;38.70
62103;BME280;48077;48.104;11.702;2024-02-21T12:03:34;95784.41;;;11.60;38.61
62103;BME280;48077;48.104;11.702;2024-02-21T12:06:03;95779.75;;;11.79;40.28
62103;BME280;48077;48.104;11.702;2024-02-21T12:08:41;95772.22;;;11.99;39.82
62103;BME280;48077;48.104;11.702;2024-02-21T12:11:19;95759.31;;;11.84;37.84
62103;BME280;48077;48.104;11.702;2024-02-21T12:13:47;95764.69;;;11.96;37.85
62103;BME280;48077;48.104;11.702;2024-02-21T12:16:15;95759.91;;;11.86;36.78
62103;BME280;48077;48.104;11.702;2024-02-21T12:18:45;95750.72;;;12.06;38.23
62103;BME280;48077;48.104;11.702;2024-02-21T12:21:13;95750.00;;;11.87;36.86
62103;BME280;48077;48.104;11.702;2024-02-21T12:23:41;95750.59;;;12.12;38.97
62103;BME280;48077;48.104;11.702;2024-02-21T12:26:08;95749.22;;;11.74;38.88
62103;BME280;48077;48.104;11.702;2024-02-21T12:28:38;95740.75;;;11.89;39.71
62103;BME280;48077;48.104;11.702;2024-02-21T12:31:06;95744.34;;;11.95;38.27
62103;BME280;48077;48.104;11.702;2024-02-21T12:33:34;95736.22;;;11.90;37.08
62103;BME280;48077;48.104;11.702;2024-02-21T12:36:02;95736.47;;;11.88;38.21
62103;BME280;48077;48.104;11.702;2024-02-21T12:38:31;95724.81;;;11.83;38.58
62103;BME280;48077;48.104;11.702;2024-02-21T12:40:59;95714.13;;;11.94;37.80
62103;BME280;48077;48.104;11.702;2024-02-21T12:43:27;95711.44;;;12.06;39.56
62103;BME280;48077;48.104;11.702;2024-02-21T12:45:56;95698.31;;;12.05;36.44
62103;BME280;48077;48.104;11.702;2024-02-21T12:48:24;95697.66;;;12.26;39.36
62103;BME280;48077;48.104;11.702;2024-02-21T12:50:52;95690.28;;;12.05;37.07
62103;BME280;48077;48.104;11.702;2024-02-21T12:53:20;95682.94;;;12.41;35.57
62103;BME280;48077;48.104;11.702;2024-02-21T12:55:58;95679.94;;;12.37;35.70
62103;BME280;48077;48.104;11.702;2024-02-21T12:58:26;95669.53;;;12.24;35.92
62103;BME280;48077;48.104;11.702;2024-02-21T13:00:56;95662.47;;;12.18;36.80
62103;BME280;48077;48.104;11.702;2024-02-21T13:03:24;95664.22;;;12.12;37.08